sensor_id;sensor_type;location;lat;lon;timestamp;P1;durP1;ratioP1;P2;durP2;ratioP2
17147;SDS011;8689;47.364;8.796;2024-03-07T08:28:30;8.40;;;5.43;;
17147;SDS011;8689;47.364;8.796;2024-03-07T08:30:57;8.37;;;5.87;;
17147;SDS011;8689;47.364;8.796;2024-03-07T08:33:25;7.77;;;5.90;;
17147;SDS011;8689;47.364;8.796;2024-03-07T08:35:52;14.20;;;7.07;;
17147;SDS011;8689;47.364;8.796;2024-03-07T08:38:19;9.63;;;6.30;;
17147;SDS011;8689;47.364;8.796;2024-03-07T08:40:46;8.93;;;6.13;;
17147;SDS011;8689;47.364;8.796;2024-03-07T08:43:13;8.23;;;5.73;;
17147;SDS011;8689;47.364;8.796;2024-03-07T08:45:42;8.77;;;6.77;;
17147;SDS011;8689;47.364;8.796;2024-03-07T08:48:09;10.43;;;7.20;;
17147;SDS011;8689;47.364;8.796;2024-03-07T08:50:38;12.97;;;7.53;;
17147;SDS011;8689;47.364;8.796;2024-03-07T08:53:05;11.17;;;8.23;;
17147;SDS011;8689;47.364;8.796;2024-03-07T08:55:32;11.73;;;7.73;;
17147;SDS011;8689;47.364;8.796;2024-03-07T08:58:01;10.30;;;7.97;;
17147;SDS011;8689;47.364;8.796;2024-03-07T09:00:28;12.97;;;8.70;;
17147;SDS011;8689;47.364;8.796;2024-03-07T09:02:58;12.27;;;8.80;;
17147;SDS011;8689;47.364;8.796;2024-03-07T09:05:28;12.83;;;9.07;;
17147;SDS011;8689;47.364;8.796;2024-03-07T09:07:58;12.63;;;9.10;;
17147;SDS011;8689;47.364;8.796;2024-03-07T09:10:25;11.90;;;8.93;;
17147;SDS011;8689;47.364;8.796;2024-03-07T09:12:54;14.57;;;10.40;;
17147;SDS011;8689;47.364;8.796;2024-03-07T09:15:22;14.37;;;10.27;;
17147;SDS011;8689;47.364;8.796;2024-03-07T09:17:50;13.80;;;9.17;;
17147;SDS011;8689;47.364;8.796;2024-03-07T09:20:19;16.30;;;11.30;;
17147;SDS011;8689;47.364;8.796;2024-03-07T09:22:47;14.83;;;9.33;;
17147;SDS011;8689;47.364;8.796;2024-03-07T09:25:15;12.00;;;9.13;;
17147;SDS011;8689;47.364;8.796;2024-03-07T09:27:44;14.47;;;9.17;;
17147;SDS011;8689;47.364;8.796;2024-03-07T09:30:12;13.23;;;9.33;;
17147;SDS011;8689;47.364;8.796;2024-03-07T09:32:44;12.63;;;8.80;;
17147;SDS011;8689;47.364;8.796;2024-03-07T09:35:11;11.40;;;9.17;;
17147;SDS011;8689;47.364;8.796;2024-03-07T09:37:41;13.73;;;9.53;;
17147;SDS011;8689;47.364;8.796;2024-03-07T09:40:24;15.93;;;9.53;;
17147;SDS011;8689;47.364;8.796;2024-03-07T09:42:53;11.50;;;8.40;;
17147;SDS011;8689;47.364;8.796;2024-03-07T09:45:23;14.03;;;10.00;;
17147;SDS011;8689;47.364;8.796;2024-03-07T09:47:56;14.60;;;9.60;;
17147;SDS011;8689;47.364;8.796;2024-03-07T09:50:39;12.77;;;9.53;;
17147;SDS011;8689;47.364;8.796;2024-03-07T09:53:25;11.23;;;9.70;;
17147;SDS011;8689;47.364;8.796;2024-03-07T09:55:55;11.70;;;9.70;;
17147;SDS011;8689;47.364;8.796;2024-03-07T09:58:24;12.13;;;9.13;;
17147;SDS011;8689;47.364;8.796;2024-03-07T10:00:56;15.37;;;10.10;;
17147;SDS011;8689;47.364;8.796;2024-03-07T10:03:32;14.90;;;9.83;;
17147;SDS011;8689;47.364;8.796;2024-03-07T10:06:06;13.57;;;9.80;;
17147;SDS011;8689;47.364;8.796;2024-03-07T10:08:50;10.80;;;9.07;;
17147;SDS011;8689;47.364;8.796;2024-03-07T10:11:18;10.83;;;9.50;;
17147;SDS011;8689;47.364;8.796;2024-03-07T10:13:46;10.80;;;9.60;;
17147;SDS011;8689;47.364;8.796;2024-03-07T10:16:15;12.40;;;10.13;;
17147;SDS011;8689;47.364;8.796;2024-03-07T10:18:43;12.53;;;10.23;;
17147;SDS011;8689;47.364;8.796;2024-03-07T10:21:13;11.50;;;9.40;;
17147;SDS011;8689;47.364;8.796;2024-03-07T10:23:43;12.27;;;9.67;;
17147;SDS011;8689;47.364;8.796;2024-03-07T10:26:10;12.87;;;8.87;;
17147;SDS011;8689;47.364;8.796;2024-03-07T10:28:38;10.73;;;8.23;;
17147;SDS011;8689;47.364;8.796;2024-03-07T10:31:06;9.73;;;8.77;;
17147;SDS011;8689;47.364;8.796;2024-03-07T10:33:36;11.00;;;9.47;;
17147;SDS011;8689;47.364;8.796;2024-03-07T10:36:18;10.23;;;9.00;;
17147;SDS011;8689;47.364;8.796;2024-03-07T10:38:46;12.10;;;9.17;;
17147;SDS011;8689;47.364;8.796;2024-03-07T10:41:16;9.83;;;8.70;;
17147;SDS011;8689;47.364;8.796;2024-03-07T10:43:45;11.80;;;8.27;;
17147;SDS011;8689;47.364;8.796;2024-03-07T10:46:17;11.50;;;9.07;;
17147;SDS011;8689;47.364;8.796;2024-03-07T10:51:46;12.10;;;8.47;;
17147;SDS011;8689;47.364;8.796;2024-03-07T10:54:18;10.40;;;9.27;;
17147;SDS011;8689;47.364;8.796;2024-03-07T10:57:07;10.47;;;8.67;;
17147;SDS011;8689;47.364;8.796;2024-03-07T10:59:45;13.80;;;9.07;;
17147;SDS011;8689;47.364;8.796;2024-03-07T11:02:33;11.13;;;9.33;;
17147;SDS011;8689;47.364;8.796;2024-03-07T11:05:12;10.87;;;8.97;;
17147;SDS011;8689;47.364;8.796;2024-03-07T11:07:51;11.97;;;9.47;;
17147;SDS011;8689;47.364;8.796;2024-03-07T11:10:37;10.73;;;8.80;;
17147;SDS011;8689;47.364;8.796;2024-03-07T11:13:14;9.87;;;8.03;;
17147;SDS011;8689;47.364;8.796;2024-03-07T11:53:08;18.73;;;10.70;;
17147;SDS011;8689;47.364;8.796;2024-03-07T11:55:35;12.63;;;11.13;;
17147;SDS011;8689;47.364;8.796;2024-03-07T11:58:09;13.70;;;10.50;;
17147;SDS011;8689;47.364;8.796;2024-03-07T12:00:39;16.47;;;11.50;;
17147;SDS011;8689;47.364;8.796;2024-03-07T12:05:51;14.23;;;11.10;;
17147;SDS011;8689;47.364;8.796;2024-03-07T12:08:44;14.63;;;10.87;;
17147;SDS011;8689;47.364;8.796;2024-03-07T12:11:12;13.90;;;10.60;;
17147;SDS011;8689;47.364;8.796;2024-03-07T12:13:43;17.07;;;12.07;;
17147;SDS011;8689;47.364;8.796;2024-03-07T12:16:12;13.60;;;10.37;;
17147;SDS011;8689;47.364;8.796;2024-03-07T12:18:41;16.60;;;12.53;;
17147;SDS011;8689;47.364;8.796;2024-03-07T12:21:20;17.93;;;11.50;;
17147;SDS011;8689;47.364;8.796;2024-03-07T12:24:14;20.20;;;12.43;;
17147;SDS011;8689;47.364;8.796;2024-03-07T12:26:41;23.00;;;13.47;;
17147;SDS011;8689;47.364;8.796;2024-03-07T12:32:15;21.90;;;13.17;;
17147;SDS011;8689;47.364;8.796;2024-03-07T12:35:30;28.23;;;14.40;;
17147;SDS011;8689;47.364;8.796;2024-03-07T12:37:56;19.30;;;13.30;;
17147;SDS011;8689;47.364;8.796;2024-03-07T12:40:28;17.57;;;11.83;;
17147;SDS011;8689;47.364;8.796;2024-03-07T12:42:59;17.20;;;12.37;;
17147;SDS011;8689;47.364;8.796;2024-03-07T12:45:27;20.10;;;12.33;;
17147;SDS011;8689;47.364;8.796;2024-03-07T12:47:58;19.00;;;13.57;;
17147;SDS011;8689;47.364;8.796;2024-03-07T12:50:29;17.67;;;12.80;;
17147;SDS011;8689;47.364;8.796;2024-03-07T12:53:00;23.23;;;14.53;;
17147;SDS011;8689;47.364;8.796;2024-03-07T12:55:32;23.17;;;13.70;;
17147;SDS011;8689;47.364;8.796;2024-03-07T12:58:03;19.87;;;13.63;;
17147;SDS011;8689;47.364;8.796;2024-03-07T13:00:56;19.40;;;13.40;;
17147;SDS011;8689;47.364;8.796;2024-03-07T13:03:37;18.67;;;13.70;;
17147;SDS011;8689;47.364;8.796;2024-03-07T13:06:07;19.63;;;13.10;;
17147;SDS011;8689;47.364;8.796;2024-03-07T13:08:36;19.37;;;12.80;;
17147;SDS011;8689;47.364;8.796;2024-03-07T13:11:04;18.10;;;13.60;;
17147;SDS011;8689;47.364;8.796;2024-03-07T13:13:34;21.40;;;13.50;;
17147;SDS011;8689;47.364;8.796;2024-03-07T13:36:36;18.90;;;13.33;;
17147;SDS011;8689;47.364;8.796;2024-03-07T14:14:32;21.33;;;13.47;;
17147;SDS011;8689;47.364;8.796;2024-03-07T14:17:27;18.00;;;13.03;;
17147;SDS011;8689;47.364;8.796;2024-03-07T14:23:39;25.93;;;13.67;;
17147;SDS011;8689;47.364;8.796;2024-03-07T14:29:47;18.83;;;13.73;;
17147;SDS011;8689;47.364;8.796;2024-03-07T14:32:21;18.50;;;12.63;;
17147;SDS011;8689;47.364;8.796;2024-03-07T14:35:35;17.03;;;11.67;;
17147;SDS011;8689;47.364;8.796;2024-03-07T14:38:23;16.83;;;12.30;;
17147;SDS011;8689;47.364;8.796;2024-03-07T14:41:02;15.53;;;12.17;;
17147;SDS011;8689;47.364;8.796;2024-03-07T14:43:43;17.27;;;12.57;;
17147;SDS011;8689;47.364;8.796;2024-03-07T14:46:16;16.47;;;11.67;;
17147;SDS011;8689;47.364;8.796;2024-03-07T14:48:48;15.03;;;11.77;;
17147;SDS011;8689;47.364;8.796;2024-03-07T14:51:31;18.07;;;12.40;;
17147;SDS011;8689;47.364;8.796;2024-03-07T14:54:20;17.93;;;12.20;;
17147;SDS011;8689;47.364;8.796;2024-03-07T14:56:59;17.83;;;12.60;;
17147;SDS011;8689;47.364;8.796;2024-03-07T15:02:47;16.57;;;11.53;;
17147;SDS011;8689;47.364;8.796;2024-03-07T15:08:06;15.83;;;11.70;;
17147;SDS011;8689;47.364;8.796;2024-03-07T15:10:35;15.63;;;11.03;;
17147;SDS011;8689;47.364;8.796;2024-03-07T15:13:05;20.57;;;12.07;;
17147;SDS011;8689;47.364;8.796;2024-03-07T15:15:37;16.53;;;11.50;;
17147;SDS011;8689;47.364;8.796;2024-03-07T15:18:07;11.97;;;10.70;;
17147;SDS011;8689;47.364;8.796;2024-03-07T15:20:35;14.83;;;12.30;;
17147;SDS011;8689;47.364;8.796;2024-03-07T15:23:16;14.87;;;11.00;;
17147;SDS011;8689;47.364;8.796;2024-03-07T15:25:52;14.37;;;11.80;;
17147;SDS011;8689;47.364;8.796;2024-03-07T15:28:26;19.10;;;11.57;;
17147;SDS011;8689;47.364;8.796;2024-03-07T15:30:55;15.73;;;12.43;;
17147;SDS011;8689;47.364;8.796;2024-03-07T15:33:40;14.17;;;10.80;;
